Terminal Aerodrome Forecast
Issued by NWS

Home | Current Version | Previous Version | Text Only | Print | Product List | Glossary On
Versions: 1 2 3 4 5 6 7 8 9 10 11
172
FTUS45 KTFX 160520
TAFHVR
TAF
KHVR 160520Z 1606/1706 22011KT P6SM BKN080
     FM161000 23011KT P6SM SKC
     FM170300 20011KT P6SM SCT100 BKN180=

USA.gov is the U.S. government's official web portal to all federal, state and local government web resources and services.